sensor_id;sensor_type;location;lat;lon;timestamp;temperature;humidity
44461;DHT22;30162;53.642;10.640;2022-07-23T00:01:05;20.30;80.70
44461;DHT22;30162;53.642;10.640;2022-07-23T00:03:31;20.40;79.90
44461;DHT22;30162;53.642;10.640;2022-07-23T00:05:56;20.30;80.40
44461;DHT22;30162;53.642;10.640;2022-07-23T00:08:22;20.30;80.20
44461;DHT22;30162;53.642;10.640;2022-07-23T00:10:48;20.20;80.40
44461;DHT22;30162;53.642;10.640;2022-07-23T00:13:13;20.40;80.20
44461;DHT22;30162;53.642;10.640;2022-07-23T00:15:39;20.40;80.40
44461;DHT22;30162;53.642;10.640;2022-07-23T00:18:04;20.40;80.90
44461;DHT22;30162;53.642;10.640;2022-07-23T00:20:30;20.40;79.80
44461;DHT22;30162;53.642;10.640;2022-07-23T00:22:56;20.40;80.50
44461;DHT22;30162;53.642;10.640;2022-07-23T00:25:23;20.30;80.10
44461;DHT22;30162;53.642;10.640;2022-07-23T00:27:49;20.30;80.90
44461;DHT22;30162;53.642;10.640;2022-07-23T00:30:14;20.20;81.30
44461;DHT22;30162;53.642;10.640;2022-07-23T00:32:54;20.30;81.00
44461;DHT22;30162;53.642;10.640;2022-07-23T00:35:22;20.40;81.00
44461;DHT22;30162;53.642;10.640;2022-07-23T00:37:48;20.20;81.50
44461;DHT22;30162;53.642;10.640;2022-07-23T00:40:14;20.20;82.00
44461;DHT22;30162;53.642;10.640;2022-07-23T00:42:40;20.10;82.20
44461;DHT22;30162;53.642;10.640;2022-07-23T00:45:06;20.30;81.40
44461;DHT22;30162;53.642;10.640;2022-07-23T00:47:32;20.30;81.00
44461;DHT22;30162;53.642;10.640;2022-07-23T00:49:57;20.20;81.70
44461;DHT22;30162;53.642;10.640;2022-07-23T00:52:23;20.20;81.70
44461;DHT22;30162;53.642;10.640;2022-07-23T00:54:49;20.20;82.00
44461;DHT22;30162;53.642;10.640;2022-07-23T00:57:15;20.10;82.20
44461;DHT22;30162;53.642;10.640;2022-07-23T00:59:41;20.20;82.20
44461;DHT22;30162;53.642;10.640;2022-07-23T01:02:07;20.30;81.60
44461;DHT22;30162;53.642;10.640;2022-07-23T01:04:32;20.30;82.40
44461;DHT22;30162;53.642;10.640;2022-07-23T01:06:58;20.50;81.50
44461;DHT22;30162;53.642;10.640;2022-07-23T01:09:24;20.60;80.80
44461;DHT22;30162;53.642;10.640;2022-07-23T01:11:50;20.50;80.60
44461;DHT22;30162;53.642;10.640;2022-07-23T01:14:18;20.50;81.40
44461;DHT22;30162;53.642;10.640;2022-07-23T01:16:45;20.30;81.70
44461;DHT22;30162;53.642;10.640;2022-07-23T01:19:12;20.20;82.60
44461;DHT22;30162;53.642;10.640;2022-07-23T01:21:43;20.30;82.60
44461;DHT22;30162;53.642;10.640;2022-07-23T01:24:10;20.10;83.30
44461;DHT22;30162;53.642;10.640;2022-07-23T01:26:37;20.20;83.10
44461;DHT22;30162;53.642;10.640;2022-07-23T01:29:03;20.30;82.50
44461;DHT22;30162;53.642;10.640;2022-07-23T01:31:29;20.30;82.70
44461;DHT22;30162;53.642;10.640;2022-07-23T01:33:55;20.40;82.50
44461;DHT22;30162;53.642;10.640;2022-07-23T01:36:21;20.30;83.00
44461;DHT22;30162;53.642;10.640;2022-07-23T01:38:47;20.20;83.10
44461;DHT22;30162;53.642;10.640;2022-07-23T01:41:13;20.20;83.60
44461;DHT22;30162;53.642;10.640;2022-07-23T01:43:39;20.30;83.30
44461;DHT22;30162;53.642;10.640;2022-07-23T01:46:04;20.30;83.10
44461;DHT22;30162;53.642;10.640;2022-07-23T01:48:30;20.20;83.40
44461;DHT22;30162;53.642;10.640;2022-07-23T01:50:55;20.20;83.50
44461;DHT22;30162;53.642;10.640;2022-07-23T01:53:21;20.10;83.40
44461;DHT22;30162;53.642;10.640;2022-07-23T01:55:47;20.10;83.30
44461;DHT22;30162;53.642;10.640;2022-07-23T01:58:13;20.10;83.80
44461;DHT22;30162;53.642;10.640;2022-07-23T02:00:38;20.00;84.20
44461;DHT22;30162;53.642;10.640;2022-07-23T02:03:04;20.00;84.10
44461;DHT22;30162;53.642;10.640;2022-07-23T02:05:29;19.90;84.80
44461;DHT22;30162;53.642;10.640;2022-07-23T02:07:56;19.90;84.60
44461;DHT22;30162;53.642;10.640;2022-07-23T02:10:21;19.90;84.90
44461;DHT22;30162;53.642;10.640;2022-07-23T02:12:47;19.90;85.50
44461;DHT22;30162;53.642;10.640;2022-07-23T02:15:13;19.80;85.60
44461;DHT22;30162;53.642;10.640;2022-07-23T02:17:39;19.70;85.80
44461;DHT22;30162;53.642;10.640;2022-07-23T02:20:05;19.80;85.60
44461;DHT22;30162;53.642;10.640;2022-07-23T02:22:32;19.70;85.60
44461;DHT22;30162;53.642;10.640;2022-07-23T02:24:57;19.80;85.80
44461;DHT22;30162;53.642;10.640;2022-07-23T02:27:23;19.70;85.40
44461;DHT22;30162;53.642;10.640;2022-07-23T02:29:49;19.50;87.50
44461;DHT22;30162;53.642;10.640;2022-07-23T02:32:14;19.50;87.70
44461;DHT22;30162;53.642;10.640;2022-07-23T02:34:40;19.40;88.10
44461;DHT22;30162;53.642;10.640;2022-07-23T02:37:06;19.40;88.40
44461;DHT22;30162;53.642;10.640;2022-07-23T02:39:34;19.40;89.40
44461;DHT22;30162;53.642;10.640;2022-07-23T02:42:00;19.40;90.70
44461;DHT22;30162;53.642;10.640;2022-07-23T02:44:25;19.40;92.60
44461;DHT22;30162;53.642;10.640;2022-07-23T02:46:51;19.40;92.90
44461;DHT22;30162;53.642;10.640;2022-07-23T02:49:17;19.50;92.90
44461;DHT22;30162;53.642;10.640;2022-07-23T02:51:42;19.50;91.40
44461;DHT22;30162;53.642;10.640;2022-07-23T02:54:08;19.50;91.80
44461;DHT22;30162;53.642;10.640;2022-07-23T02:56:33;19.40;90.80
44461;DHT22;30162;53.642;10.640;2022-07-23T02:58:59;19.40;89.90
44461;DHT22;30162;53.642;10.640;2022-07-23T03:01:24;19.40;89.30
44461;DHT22;30162;53.642;10.640;2022-07-23T03:03:50;19.30;90.50
44461;DHT22;30162;53.642;10.640;2022-07-23T03:06:16;19.40;90.10
44461;DHT22;30162;53.642;10.640;2022-07-23T03:08:42;19.30;88.30
44461;DHT22;30162;53.642;10.640;2022-07-23T03:11:08;19.20;89.00
44461;DHT22;30162;53.642;10.640;2022-07-23T03:13:37;19.20;88.90
44461;DHT22;30162;53.642;10.640;2022-07-23T03:16:03;19.10;88.90
44461;DHT22;30162;53.642;10.640;2022-07-23T03:18:29;19.10;89.50
44461;DHT22;30162;53.642;10.640;2022-07-23T03:20:54;19.10;89.20
44461;DHT22;30162;53.642;10.640;2022-07-23T03:23:20;19.00;89.60
44461;DHT22;30162;53.642;10.640;2022-07-23T03:25:46;18.90;90.10
44461;DHT22;30162;53.642;10.640;2022-07-23T03:28:15;18.90;89.70
44461;DHT22;30162;53.642;10.640;2022-07-23T03:30:45;18.80;90.00
44461;DHT22;30162;53.642;10.640;2022-07-23T03:33:12;18.70;90.10
44461;DHT22;30162;53.642;10.640;2022-07-23T03:35:39;18.70;90.50
44461;DHT22;30162;53.642;10.640;2022-07-23T03:38:04;18.50;90.30
44461;DHT22;30162;53.642;10.640;2022-07-23T03:40:30;18.40;90.80
44461;DHT22;30162;53.642;10.640;2022-07-23T03:42:56;18.20;91.40
44461;DHT22;30162;53.642;10.640;2022-07-23T03:45:21;18.30;91.20
44461;DHT22;30162;53.642;10.640;2022-07-23T03:47:47;18.30;91.00
44461;DHT22;30162;53.642;10.640;2022-07-23T03:50:12;18.40;91.00
44461;DHT22;30162;53.642;10.640;2022-07-23T03:52:38;18.30;91.00
44461;DHT22;30162;53.642;10.640;2022-07-23T03:55:04;18.30;91.00
44461;DHT22;30162;53.642;10.640;2022-07-23T03:57:30;18.40;91.20
44461;DHT22;30162;53.642;10.640;2022-07-23T03:59:56;18.50;91.10
44461;DHT22;30162;53.642;10.640;2022-07-23T04:02:22;18.70;91.00
44461;DHT22;30162;53.642;10.640;2022-07-23T04:04:47;18.70;90.70
44461;DHT22;30162;53.642;10.640;2022-07-23T04:07:13;18.60;91.20
44461;DHT22;30162;53.642;10.640;2022-07-23T04:09:39;18.80;90.90
44461;DHT22;30162;53.642;10.640;2022-07-23T04:12:08;19.00;90.60
44461;DHT22;30162;53.642;10.640;2022-07-23T04:14:33;19.10;90.40
44461;DHT22;30162;53.642;10.640;2022-07-23T04:16:59;19.30;89.50
44461;DHT22;30162;53.642;10.640;2022-07-23T04:19:25;19.50;88.80
44461;DHT22;30162;53.642;10.640;2022-07-23T04:21:51;19.50;88.20
44461;DHT22;30162;53.642;10.640;2022-07-23T04:24:17;19.50;87.70
44461;DHT22;30162;53.642;10.640;2022-07-23T04:26:43;19.50;88.40
44461;DHT22;30162;53.642;10.640;2022-07-23T04:29:09;19.60;88.70
44461;DHT22;30162;53.642;10.640;2022-07-23T04:31:35;19.70;86.80
44461;DHT22;30162;53.642;10.640;2022-07-23T04:34:00;19.80;86.20
44461;DHT22;30162;53.642;10.640;2022-07-23T04:36:26;19.80;86.70
44461;DHT22;30162;53.642;10.640;2022-07-23T04:38:51;20.00;86.40
44461;DHT22;30162;53.642;10.640;2022-07-23T04:41:17;20.00;86.10
44461;DHT22;30162;53.642;10.640;2022-07-23T04:43:42;20.10;85.10
44461;DHT22;30162;53.642;10.640;2022-07-23T04:46:08;19.90;85.50
44461;DHT22;30162;53.642;10.640;2022-07-23T04:48:36;20.10;85.40
44461;DHT22;30162;53.642;10.640;2022-07-23T04:51:01;20.20;84.60
44461;DHT22;30162;53.642;10.640;2022-07-23T04:53:27;20.20;85.10
44461;DHT22;30162;53.642;10.640;2022-07-23T04:55:53;20.30;84.90
44461;DHT22;30162;53.642;10.640;2022-07-23T04:58:19;20.40;84.50
44461;DHT22;30162;53.642;10.640;2022-07-23T05:00:44;20.30;83.70
44461;DHT22;30162;53.642;10.640;2022-07-23T05:03:10;20.20;84.60
44461;DHT22;30162;53.642;10.640;2022-07-23T05:05:35;20.00;84.70
44461;DHT22;30162;53.642;10.640;2022-07-23T05:08:01;20.10;84.80
44461;DHT22;30162;53.642;10.640;2022-07-23T05:10:27;20.20;85.30
44461;DHT22;30162;53.642;10.640;2022-07-23T05:12:53;20.30;84.40
44461;DHT22;30162;53.642;10.640;2022-07-23T05:15:18;20.20;84.50
44461;DHT22;30162;53.642;10.640;2022-07-23T05:17:44;20.10;84.40
44461;DHT22;30162;53.642;10.640;2022-07-23T05:20:10;20.00;84.30
44461;DHT22;30162;53.642;10.640;2022-07-23T05:22:35;19.80;84.00
44461;DHT22;30162;53.642;10.640;2022-07-23T05:25:01;19.90;84.80
44461;DHT22;30162;53.642;10.640;2022-07-23T05:27:27;20.00;84.70
44461;DHT22;30162;53.642;10.640;2022-07-23T05:29:52;20.00;84.30
44461;DHT22;30162;53.642;10.640;2022-07-23T05:32:18;20.00;85.60
44461;DHT22;30162;53.642;10.640;2022-07-23T05:34:43;20.10;86.00
44461;DHT22;30162;53.642;10.640;2022-07-23T05:37:09;20.10;86.80
44461;DHT22;30162;53.642;10.640;2022-07-23T05:39:35;20.00;87.50
44461;DHT22;30162;53.642;10.640;2022-07-23T05:42:00;20.10;87.80
44461;DHT22;30162;53.642;10.640;2022-07-23T05:44:26;20.10;88.00
44461;DHT22;30162;53.642;10.640;2022-07-23T05:46:52;20.00;87.40
44461;DHT22;30162;53.642;10.640;2022-07-23T05:49:18;19.90;88.20
44461;DHT22;30162;53.642;10.640;2022-07-23T05:51:44;19.70;88.20
44461;DHT22;30162;53.642;10.640;2022-07-23T05:54:10;19.60;88.80
44461;DHT22;30162;53.642;10.640;2022-07-23T05:56:36;19.60;90.10
44461;DHT22;30162;53.642;10.640;2022-07-23T05:59:01;19.80;90.30
44461;DHT22;30162;53.642;10.640;2022-07-23T06:01:27;19.80;90.30
44461;DHT22;30162;53.642;10.640;2022-07-23T06:03:53;19.80;89.60
44461;DHT22;30162;53.642;10.640;2022-07-23T06:06:18;19.50;89.20
44461;DHT22;30162;53.642;10.640;2022-07-23T06:08:44;19.50;90.60
44461;DHT22;30162;53.642;10.640;2022-07-23T06:11:09;19.50;90.50
44461;DHT22;30162;53.642;10.640;2022-07-23T06:13:35;19.60;90.50
44461;DHT22;30162;53.642;10.640;2022-07-23T06:16:01;19.70;90.40
44461;DHT22;30162;53.642;10.640;2022-07-23T06:18:27;19.60;90.80
44461;DHT22;30162;53.642;10.640;2022-07-23T06:20:52;19.70;91.20
44461;DHT22;30162;53.642;10.640;2022-07-23T06:23:18;19.90;90.70
44461;DHT22;30162;53.642;10.640;2022-07-23T06:25:43;19.70;90.50
44461;DHT22;30162;53.642;10.640;2022-07-23T06:28:09;19.40;90.00
44461;DHT22;30162;53.642;10.640;2022-07-23T06:30:35;19.20;91.20
44461;DHT22;30162;53.642;10.640;2022-07-23T06:33:00;19.40;91.20
44461;DHT22;30162;53.642;10.640;2022-07-23T06:35:26;19.70;91.00
44461;DHT22;30162;53.642;10.640;2022-07-23T06:37:51;19.90;90.40
44461;DHT22;30162;53.642;10.640;2022-07-23T06:40:17;19.90;90.70
44461;DHT22;30162;53.642;10.640;2022-07-23T06:42:42;20.00;91.00
44461;DHT22;30162;53.642;10.640;2022-07-23T06:45:08;20.00;90.10
44461;DHT22;30162;53.642;10.640;2022-07-23T06:47:34;20.30;89.70
44461;DHT22;30162;53.642;10.640;2022-07-23T06:49:59;20.60;88.50
44461;DHT22;30162;53.642;10.640;2022-07-23T06:52:25;21.00;88.00
44461;DHT22;30162;53.642;10.640;2022-07-23T06:54:52;21.10;87.80
44461;DHT22;30162;53.642;10.640;2022-07-23T06:57:17;21.30;86.60
44461;DHT22;30162;53.642;10.640;2022-07-23T06:59:43;21.30;87.50
44461;DHT22;30162;53.642;10.640;2022-07-23T07:02:09;21.80;87.10
44461;DHT22;30162;53.642;10.640;2022-07-23T07:04:34;21.50;84.90
44461;DHT22;30162;53.642;10.640;2022-07-23T07:07:00;21.70;85.40
44461;DHT22;30162;53.642;10.640;2022-07-23T07:09:26;22.00;83.90
44461;DHT22;30162;53.642;10.640;2022-07-23T07:11:52;22.00;84.30
44461;DHT22;30162;53.642;10.640;2022-07-23T07:14:18;22.30;83.50
44461;DHT22;30162;53.642;10.640;2022-07-23T07:16:44;22.00;81.70
44461;DHT22;30162;53.642;10.640;2022-07-23T07:19:09;22.20;80.50
44461;DHT22;30162;53.642;10.640;2022-07-23T07:21:35;21.60;81.90
44461;DHT22;30162;53.642;10.640;2022-07-23T07:24:01;21.70;84.50
44461;DHT22;30162;53.642;10.640;2022-07-23T07:26:26;21.90;81.90
44461;DHT22;30162;53.642;10.640;2022-07-23T07:28:52;22.30;82.80
44461;DHT22;30162;53.642;10.640;2022-07-23T07:31:18;22.70;81.20
44461;DHT22;30162;53.642;10.640;2022-07-23T07:33:43;22.70;77.30
44461;DHT22;30162;53.642;10.640;2022-07-23T07:36:09;22.70;79.90
44461;DHT22;30162;53.642;10.640;2022-07-23T07:38:34;23.10;78.40
44461;DHT22;30162;53.642;10.640;2022-07-23T07:41:00;23.40;76.30
44461;DHT22;30162;53.642;10.640;2022-07-23T07:43:26;23.10;76.20
44461;DHT22;30162;53.642;10.640;2022-07-23T07:45:51;22.90;77.10
44461;DHT22;30162;53.642;10.640;2022-07-23T07:48:17;22.70;76.80
44461;DHT22;30162;53.642;10.640;2022-07-23T07:50:42;22.20;76.80
44461;DHT22;30162;53.642;10.640;2022-07-23T07:53:08;22.00;78.00
44461;DHT22;30162;53.642;10.640;2022-07-23T07:55:34;21.90;77.60
44461;DHT22;30162;53.642;10.640;2022-07-23T07:58:00;22.30;78.20
44461;DHT22;30162;53.642;10.640;2022-07-23T08:00:26;22.60;74.60
44461;DHT22;30162;53.642;10.640;2022-07-23T08:02:53;22.30;75.40
44461;DHT22;30162;53.642;10.640;2022-07-23T08:05:24;22.40;75.30
44461;DHT22;30162;53.642;10.640;2022-07-23T08:07:50;22.80;74.90
44461;DHT22;30162;53.642;10.640;2022-07-23T08:10:15;22.90;75.50
44461;DHT22;30162;53.642;10.640;2022-07-23T08:15:10;23.40;74.50
44461;DHT22;30162;53.642;10.640;2022-07-23T08:17:36;23.60;72.30
44461;DHT22;30162;53.642;10.640;2022-07-23T08:20:05;23.00;72.00
44461;DHT22;30162;53.642;10.640;2022-07-23T08:22:51;22.90;72.50
44461;DHT22;30162;53.642;10.640;2022-07-23T08:27:49;22.60;75.20
44461;DHT22;30162;53.642;10.640;2022-07-23T08:30:16;22.90;74.50
44461;DHT22;30162;53.642;10.640;2022-07-23T08:35:35;23.00;74.50
44461;DHT22;30162;53.642;10.640;2022-07-23T08:38:06;23.10;74.70
44461;DHT22;30162;53.642;10.640;2022-07-23T08:40:35;22.10;74.80
44461;DHT22;30162;53.642;10.640;2022-07-23T08:43:05;22.00;75.30
44461;DHT22;30162;53.642;10.640;2022-07-23T08:45:36;21.90;76.30
44461;DHT22;30162;53.642;10.640;2022-07-23T08:48:03;22.00;76.70
44461;DHT22;30162;53.642;10.640;2022-07-23T08:50:28;21.90;77.40
44461;DHT22;30162;53.642;10.640;2022-07-23T08:52:54;22.30;76.90
44461;DHT22;30162;53.642;10.640;2022-07-23T08:55:22;22.70;75.20
44461;DHT22;30162;53.642;10.640;2022-07-23T08:57:50;23.00;74.10
44461;DHT22;30162;53.642;10.640;2022-07-23T09:00:17;22.70;73.80
44461;DHT22;30162;53.642;10.640;2022-07-23T09:02:44;22.80;74.50
44461;DHT22;30162;53.642;10.640;2022-07-23T09:05:12;23.30;73.50
44461;DHT22;30162;53.642;10.640;2022-07-23T09:08:02;23.80;74.00
44461;DHT22;30162;53.642;10.640;2022-07-23T09:10:24;24.60;70.40
44461;DHT22;30162;53.642;10.640;2022-07-23T09:12:49;25.00;70.00
44461;DHT22;30162;53.642;10.640;2022-07-23T09:15:15;24.60;68.00
44461;DHT22;30162;53.642;10.640;2022-07-23T09:17:42;24.60;70.10
44461;DHT22;30162;53.642;10.640;2022-07-23T09:20:14;24.90;68.50
44461;DHT22;30162;53.642;10.640;2022-07-23T09:22:45;25.40;68.80
44461;DHT22;30162;53.642;10.640;2022-07-23T09:25:19;25.40;66.30
44461;DHT22;30162;53.642;10.640;2022-07-23T09:28:05;24.50;67.20
44461;DHT22;30162;53.642;10.640;2022-07-23T09:30:33;24.20;69.30
44461;DHT22;30162;53.642;10.640;2022-07-23T09:33:05;23.70;69.40
44461;DHT22;30162;53.642;10.640;2022-07-23T09:35:52;23.20;71.90
44461;DHT22;30162;53.642;10.640;2022-07-23T09:38:19;22.70;72.20
44461;DHT22;30162;53.642;10.640;2022-07-23T09:40:46;22.70;75.10
44461;DHT22;30162;53.642;10.640;2022-07-23T09:43:13;22.90;74.20
44461;DHT22;30162;53.642;10.640;2022-07-23T09:45:51;22.20;75.80
44461;DHT22;30162;53.642;10.640;2022-07-23T09:48:17;22.20;76.10
44461;DHT22;30162;53.642;10.640;2022-07-23T09:50:43;22.60;74.60
44461;DHT22;30162;53.642;10.640;2022-07-23T09:53:10;23.10;74.00
44461;DHT22;30162;53.642;10.640;2022-07-23T09:55:36;23.40;72.80
44461;DHT22;30162;53.642;10.640;2022-07-23T09:58:05;22.80;72.40
44461;DHT22;30162;53.642;10.640;2022-07-23T10:00:32;23.10;72.60
44461;DHT22;30162;53.642;10.640;2022-07-23T10:02:59;22.90;73.70
44461;DHT22;30162;53.642;10.640;2022-07-23T10:05:25;23.00;72.90
44461;DHT22;30162;53.642;10.640;2022-07-23T10:07:51;23.50;72.30
44461;DHT22;30162;53.642;10.640;2022-07-23T10:10:17;23.20;73.30
44461;DHT22;30162;53.642;10.640;2022-07-23T10:12:44;23.80;72.70
44461;DHT22;30162;53.642;10.640;2022-07-23T10:15:09;23.60;70.50
44461;DHT22;30162;53.642;10.640;2022-07-23T10:17:35;24.20;70.60
44461;DHT22;30162;53.642;10.640;2022-07-23T10:20:02;24.70;71.20
44461;DHT22;30162;53.642;10.640;2022-07-23T10:22:38;25.30;69.30
44461;DHT22;30162;53.642;10.640;2022-07-23T10:25:31;25.90;67.70
44461;DHT22;30162;53.642;10.640;2022-07-23T10:28:14;26.20;68.50
44461;DHT22;30162;53.642;10.640;2022-07-23T10:33:42;26.00;67.30
44461;DHT22;30162;53.642;10.640;2022-07-23T10:36:32;25.70;66.20
44461;DHT22;30162;53.642;10.640;2022-07-23T10:39:22;25.40;66.80
44461;DHT22;30162;53.642;10.640;2022-07-23T10:41:48;25.30;65.90
44461;DHT22;30162;53.642;10.640;2022-07-23T10:44:20;24.70;66.30
44461;DHT22;30162;53.642;10.640;2022-07-23T10:47:03;24.40;66.70
44461;DHT22;30162;53.642;10.640;2022-07-23T10:49:35;24.30;68.30
44461;DHT22;30162;53.642;10.640;2022-07-23T10:52:21;24.30;68.00
44461;DHT22;30162;53.642;10.640;2022-07-23T10:57:13;23.80;68.20
44461;DHT22;30162;53.642;10.640;2022-07-23T11:02:36;23.40;69.60
44461;DHT22;30162;53.642;10.640;2022-07-23T11:07:27;23.00;70.60
44461;DHT22;30162;53.642;10.640;2022-07-23T11:09:53;22.70;70.40
44461;DHT22;30162;53.642;10.640;2022-07-23T11:17:39;22.60;70.60
44461;DHT22;30162;53.642;10.640;2022-07-23T11:25:08;22.80;71.40
44461;DHT22;30162;53.642;10.640;2022-07-23T11:27:45;23.00;70.00
44461;DHT22;30162;53.642;10.640;2022-07-23T11:35:35;23.90;67.70
44461;DHT22;30162;53.642;10.640;2022-07-23T11:38:08;23.50;67.70
44461;DHT22;30162;53.642;10.640;2022-07-23T11:40:38;23.70;67.90
44461;DHT22;30162;53.642;10.640;2022-07-23T11:43:07;23.60;67.20
44461;DHT22;30162;53.642;10.640;2022-07-23T11:48:05;24.00;67.30
44461;DHT22;30162;53.642;10.640;2022-07-23T11:50:31;24.20;67.20
44461;DHT22;30162;53.642;10.640;2022-07-23T11:52:56;23.90;67.10
44461;DHT22;30162;53.642;10.640;2022-07-23T11:55:22;23.80;67.20
44461;DHT22;30162;53.642;10.640;2022-07-23T11:57:51;23.80;68.20
44461;DHT22;30162;53.642;10.640;2022-07-23T12:00:22;23.80;67.60
44461;DHT22;30162;53.642;10.640;2022-07-23T12:02:56;23.60;67.60
44461;DHT22;30162;53.642;10.640;2022-07-23T12:05:27;23.70;68.00
44461;DHT22;30162;53.642;10.640;2022-07-23T12:07:55;23.30;70.30
44461;DHT22;30162;53.642;10.640;2022-07-23T12:10:24;23.70;70.00
44461;DHT22;30162;53.642;10.640;2022-07-23T12:15:29;24.50;67.20
44461;DHT22;30162;53.642;10.640;2022-07-23T12:17:57;25.10;66.70
44461;DHT22;30162;53.642;10.640;2022-07-23T12:20:46;25.50;65.90
44461;DHT22;30162;53.642;10.640;2022-07-23T12:23:14;25.00;64.90
44461;DHT22;30162;53.642;10.640;2022-07-23T12:25:42;25.10;64.80
44461;DHT22;30162;53.642;10.640;2022-07-23T12:28:14;25.20;64.80
44461;DHT22;30162;53.642;10.640;2022-07-23T12:30:48;25.20;64.40
44461;DHT22;30162;53.642;10.640;2022-07-23T12:33:28;25.00;65.40
44461;DHT22;30162;53.642;10.640;2022-07-23T12:35:58;24.60;66.00
44461;DHT22;30162;53.642;10.640;2022-07-23T12:38:25;25.00;66.80
44461;DHT22;30162;53.642;10.640;2022-07-23T12:40:54;25.60;65.60
44461;DHT22;30162;53.642;10.640;2022-07-23T12:43:31;25.20;63.00
44461;DHT22;30162;53.642;10.640;2022-07-23T12:46:09;25.00;64.60
44461;DHT22;30162;53.642;10.640;2022-07-23T12:48:58;25.10;65.60
44461;DHT22;30162;53.642;10.640;2022-07-23T12:51:28;25.00;64.40
44461;DHT22;30162;53.642;10.640;2022-07-23T12:54:07;25.10;65.00
44461;DHT22;30162;53.642;10.640;2022-07-23T12:56:38;25.30;63.20
44461;DHT22;30162;53.642;10.640;2022-07-23T12:59:06;25.20;61.90
44461;DHT22;30162;53.642;10.640;2022-07-23T13:01:34;25.30;60.80
44461;DHT22;30162;53.642;10.640;2022-07-23T13:04:08;25.50;61.70
44461;DHT22;30162;53.642;10.640;2022-07-23T13:06:38;25.20;61.50
44461;DHT22;30162;53.642;10.640;2022-07-23T13:09:06;25.20;61.80
44461;DHT22;30162;53.642;10.640;2022-07-23T13:11:32;25.00;62.90
44461;DHT22;30162;53.642;10.640;2022-07-23T13:13:59;24.20;64.20
44461;DHT22;30162;53.642;10.640;2022-07-23T13:16:29;24.40;64.70
44461;DHT22;30162;53.642;10.640;2022-07-23T13:18:56;24.50;65.30
44461;DHT22;30162;53.642;10.640;2022-07-23T13:21:25;25.10;65.30
44461;DHT22;30162;53.642;10.640;2022-07-23T13:23:50;25.40;63.50
44461;DHT22;30162;53.642;10.640;2022-07-23T13:26:16;25.80;62.50
44461;DHT22;30162;53.642;10.640;2022-07-23T13:28:42;26.00;61.70
44461;DHT22;30162;53.642;10.640;2022-07-23T13:31:08;26.30;62.20
44461;DHT22;30162;53.642;10.640;2022-07-23T13:33:34;25.70;61.20
44461;DHT22;30162;53.642;10.640;2022-07-23T13:36:00;25.70;61.20
44461;DHT22;30162;53.642;10.640;2022-07-23T13:38:26;25.80;61.70
44461;DHT22;30162;53.642;10.640;2022-07-23T13:40:52;25.70;61.90
44461;DHT22;30162;53.642;10.640;2022-07-23T13:43:20;25.50;60.80
44461;DHT22;30162;53.642;10.640;2022-07-23T13:45:47;25.40;61.40
44461;DHT22;30162;53.642;10.640;2022-07-23T13:48:14;25.40;62.80
44461;DHT22;30162;53.642;10.640;2022-07-23T13:50:40;25.50;62.20
44461;DHT22;30162;53.642;10.640;2022-07-23T13:53:18;25.50;62.30
44461;DHT22;30162;53.642;10.640;2022-07-23T13:55:45;25.10;61.80
44461;DHT22;30162;53.642;10.640;2022-07-23T13:58:11;24.50;62.80
44461;DHT22;30162;53.642;10.640;2022-07-23T14:00:44;24.50;62.90
44461;DHT22;30162;53.642;10.640;2022-07-23T14:03:10;24.40;63.00
44461;DHT22;30162;53.642;10.640;2022-07-23T14:05:36;24.30;63.70
44461;DHT22;30162;53.642;10.640;2022-07-23T14:08:02;24.50;62.30
44461;DHT22;30162;53.642;10.640;2022-07-23T14:10:28;25.00;62.00
44461;DHT22;30162;53.642;10.640;2022-07-23T14:12:54;25.00;61.20
44461;DHT22;30162;53.642;10.640;2022-07-23T14:15:22;24.80;61.00
44461;DHT22;30162;53.642;10.640;2022-07-23T14:17:48;24.80;61.00
44461;DHT22;30162;53.642;10.640;2022-07-23T14:20:14;24.70;60.60
44461;DHT22;30162;53.642;10.640;2022-07-23T14:22:40;25.00;60.60
44461;DHT22;30162;53.642;10.640;2022-07-23T14:25:07;25.30;60.70
44461;DHT22;30162;53.642;10.640;2022-07-23T14:27:33;25.00;60.10
44461;DHT22;30162;53.642;10.640;2022-07-23T14:29:59;24.70;61.00
44461;DHT22;30162;53.642;10.640;2022-07-23T14:32:25;24.80;61.30
44461;DHT22;30162;53.642;10.640;2022-07-23T14:34:51;25.00;62.10
44461;DHT22;30162;53.642;10.640;2022-07-23T14:37:17;25.10;62.00
44461;DHT22;30162;53.642;10.640;2022-07-23T14:39:43;25.20;61.20
44461;DHT22;30162;53.642;10.640;2022-07-23T14:42:10;25.10;61.20
44461;DHT22;30162;53.642;10.640;2022-07-23T14:44:36;25.10;61.70
44461;DHT22;30162;53.642;10.640;2022-07-23T14:47:03;24.90;63.10
44461;DHT22;30162;53.642;10.640;2022-07-23T14:49:30;24.50;63.80
44461;DHT22;30162;53.642;10.640;2022-07-23T14:51:56;24.40;63.70
44461;DHT22;30162;53.642;10.640;2022-07-23T14:54:22;24.30;64.40
44461;DHT22;30162;53.642;10.640;2022-07-23T14:56:47;24.50;63.90
44461;DHT22;30162;53.642;10.640;2022-07-23T14:59:13;24.70;64.00
44461;DHT22;30162;53.642;10.640;2022-07-23T15:01:39;24.80;64.50
44461;DHT22;30162;53.642;10.640;2022-07-23T15:04:05;24.70;63.50
44461;DHT22;30162;53.642;10.640;2022-07-23T15:06:32;24.80;64.80
44461;DHT22;30162;53.642;10.640;2022-07-23T15:08:58;24.50;62.90
44461;DHT22;30162;53.642;10.640;2022-07-23T15:11:26;23.90;63.20
44461;DHT22;30162;53.642;10.640;2022-07-23T15:13:52;24.20;64.10
44461;DHT22;30162;53.642;10.640;2022-07-23T15:16:17;24.30;64.10
44461;DHT22;30162;53.642;10.640;2022-07-23T15:18:43;24.40;64.30
44461;DHT22;30162;53.642;10.640;2022-07-23T15:21:08;24.50;64.50
44461;DHT22;30162;53.642;10.640;2022-07-23T15:23:34;24.40;64.90
44461;DHT22;30162;53.642;10.640;2022-07-23T15:26:00;24.60;64.90
44461;DHT22;30162;53.642;10.640;2022-07-23T15:28:26;24.80;65.20
44461;DHT22;30162;53.642;10.640;2022-07-23T15:30:51;24.50;64.40
44461;DHT22;30162;53.642;10.640;2022-07-23T15:33:18;24.60;63.80
44461;DHT22;30162;53.642;10.640;2022-07-23T15:35:44;24.20;64.20
44461;DHT22;30162;53.642;10.640;2022-07-23T15:38:09;24.10;63.90
44461;DHT22;30162;53.642;10.640;2022-07-23T15:40:35;24.20;64.80
44461;DHT22;30162;53.642;10.640;2022-07-23T15:43:01;24.40;64.00
44461;DHT22;30162;53.642;10.640;2022-07-23T15:45:28;24.80;63.90
44461;DHT22;30162;53.642;10.640;2022-07-23T15:47:54;24.50;63.50
44461;DHT22;30162;53.642;10.640;2022-07-23T15:50:20;24.30;63.40
44461;DHT22;30162;53.642;10.640;2022-07-23T15:52:45;24.30;64.00
44461;DHT22;30162;53.642;10.640;2022-07-23T15:55:11;24.60;63.60